PWSweather.com
Personal Weather Stations
Station Observations
DELHOVEN
DormagenDE 41540

DormagenDE 41540

Lat: 51.083, Lon: 6.775

Elevation: 120

Station Type: WH1080

Latest ConditionsUpdated 12:54:31 PM GMT+01:01 Wednesday, Jul 1, 2015
Currently Today's Max Today's Min Today's Average
Temperature 95.2°F35.1°C 95.2°F35.1°C 65.3°F18.5°C 76.1°F24.5°C
Dew Point 57.9°F14.4°C 61.4°F16.3°C 55.6°F13.1°C 57.7°F14.3°C
Winds 9.8 mph S15.8 kmh S 12.1 mph ESE19.5 kmh ESE - 3.6 mph 5.8 kmh
Wind Gusts 17.4 mph28.0 kmh 17.4 mph28.0 kmh - -
Humidity 29% 73% 29% 55%
Pressure 30.06 in1017.9 mb 30.12 in1020.0 mb 30.05 in1017.6 mb -
Hour Temp Dew Point Humidity Winds Wind Gusts Pressure Precip Precip Rate Daily Precip Total
12:54 PM 95.2°F35.1°C 57.9°F14.4°C 29% 9.8 mph S15.8 kmh S 17.4 mph28.0 kmh 30.06 in1017.9 mb 0.00 in0.0 mm 0.00 in0.0 mm 0.00 in0.0 mm
12:49 PM 94.6°F34.8°C 60.2°F15.7°C 32% 5.4 mph SSE8.7 kmh SSE 9.2 mph14.8 kmh 30.06 in1017.9 mb 0.00 in0.0 mm 0.00 in0.0 mm 0.00 in0.0 mm
12:44 PM 93.9°F34.4°C 58.6°F14.8°C 31% 8.3 mph SE13.4 kmh SE 10.7 mph17.2 kmh 30.05 in1017.6 mb 0.00 in0.0 mm 0.00 in0.0 mm 0.00 in0.0 mm
12:39 PM 93.6°F34.2°C 58.3°F14.6°C 31% 4.5 mph E7.2 kmh E 8.3 mph13.4 kmh 30.06 in1017.9 mb 0.00 in0.0 mm 0.00 in0.0 mm 0.00 in0.0 mm
12:34 PM 93.2°F34.0°C 60.6°F15.9°C 34% 9.8 mph SW15.8 kmh SW 17.4 mph28.0 kmh 30.06 in1017.9 mb 0.00 in0.0 mm 0.00 in0.0 mm 0.00 in0.0 mm
12:29 PM 93.0°F33.9°C 61.3°F16.3°C 35% 6.9 mph E11.1 kmh E 16.8 mph27.0 kmh 30.06 in1017.9 mb 0.00 in0.0 mm 0.00 in0.0 mm 0.00 in0.0 mm
12:24 PM 93.0°F33.9°C 61.3°F16.3°C 35% 6.9 mph 11.1 kmh 11.4 mph18.3 kmh 30.06 in1017.9 mb 0.00 in0.0 mm 0.00 in0.0 mm 0.00 in0.0 mm
12:19 PM 92.3°F33.5°C 61.4°F16.3°C 36% 3.8 mph SW6.1 kmh SW 9.8 mph15.8 kmh 30.07 in1018.3 mb 0.00 in0.0 mm 0.00 in0.0 mm 0.00 in0.0 mm
12:14 PM 91.9°F33.3°C 61.1°F16.2°C 36% 6.9 mph SE11.1 kmh SE 11.4 mph18.3 kmh 30.07 in1018.3 mb 0.00 in0.0 mm 0.00 in0.0 mm 0.00 in0.0 mm
12:09 PM 91.9°F33.3°C 60.3°F15.7°C 35% 7.6 mph SE12.2 kmh SE 11.4 mph18.3 kmh 30.07 in1018.3 mb 0.00 in0.0 mm 0.00 in0.0 mm 0.00 in0.0 mm
12:04 PM 91.8°F33.2°C 60.2°F15.7°C 35% 9.8 mph W15.8 kmh W 14.5 mph23.3 kmh 30.07 in1018.3 mb 0.00 in0.0 mm 0.00 in0.0 mm 0.00 in0.0 mm
11:59 AM 91.8°F33.2°C 60.2°F15.7°C 35% 6.9 mph 11.1 kmh 12.1 mph19.5 kmh 30.07 in1018.3 mb 0.00 in0.0 mm 0.00 in0.0 mm 0.00 in0.0 mm
11:54 AM 91.4°F33.0°C 60.6°F15.9°C 36% 3.1 mph NE5.0 kmh NE 5.4 mph8.7 kmh 30.07 in1018.3 mb 0.00 in0.0 mm 0.00 in0.0 mm 0.00 in0.0 mm
11:49 AM 90.7°F32.6°C 57.6°F14.2°C 33% 12.1 mph ESE19.5 kmh ESE 15.2 mph24.5 kmh 30.07 in1018.3 mb 0.00 in0.0 mm 0.00 in0.0 mm 0.00 in0.0 mm
11:44 AM 90.0°F32.2°C 57.8°F14.3°C 34% 6.0 mph E9.7 kmh E 9.2 mph14.8 kmh 30.07 in1018.3 mb 0.00 in0.0 mm 0.00 in0.0 mm 0.00 in0.0 mm
11:39 AM 89.6°F32.0°C 57.5°F14.2°C 34% 6.9 mph S11.1 kmh S 15.2 mph24.5 kmh 30.07 in1018.3 mb 0.00 in0.0 mm 0.00 in0.0 mm 0.00 in0.0 mm
11:34 AM 89.8°F32.1°C 57.6°F14.2°C 34% 6.0 mph SE9.7 kmh SE 9.8 mph15.8 kmh 30.08 in1018.6 mb 0.00 in0.0 mm 0.00 in0.0 mm 0.00 in0.0 mm
11:29 AM 89.4°F31.9°C 58.1°F14.5°C 35% 5.4 mph S8.7 kmh S 11.4 mph18.3 kmh 30.07 in1018.3 mb 0.00 in0.0 mm 0.00 in0.0 mm 0.00 in0.0 mm
11:24 AM 89.1°F31.7°C 57.0°F13.9°C 34% 8.3 mph S13.4 kmh S 13.0 mph20.9 kmh 30.08 in1018.6 mb 0.00 in0.0 mm 0.00 in0.0 mm 0.00 in0.0 mm
11:19 AM 88.9°F31.6°C 57.6°F14.2°C 35% 5.4 mph E8.7 kmh E 8.3 mph13.4 kmh 30.08 in1018.6 mb 0.00 in0.0 mm 0.00 in0.0 mm 0.00 in0.0 mm
11:14 AM 89.2°F31.8°C 58.0°F14.4°C 35% 9.2 mph 14.8 kmh 14.5 mph23.3 kmh 30.08 in1018.6 mb 0.00 in0.0 mm 0.00 in0.0 mm 0.00 in0.0 mm
11:09 AM 88.9°F31.6°C 58.4°F14.7°C 36% 2.2 mph NE3.5 kmh NE 4.5 mph7.2 kmh 30.08 in1018.6 mb 0.00 in0.0 mm 0.00 in0.0 mm 0.00 in0.0 mm
11:04 AM 88.2°F31.2°C 57.8°F14.3°C 36% 6.0 mph E9.7 kmh E 9.2 mph14.8 kmh 30.08 in1018.6 mb 0.00 in0.0 mm 0.00 in0.0 mm 0.00 in0.0 mm
10:59 AM 88.2°F31.2°C 57.8°F14.3°C 36% 6.9 mph NE11.1 kmh NE 10.7 mph17.2 kmh 30.08 in1018.6 mb 0.00 in0.0 mm 0.00 in0.0 mm 0.00 in0.0 mm
10:54 AM 87.8°F31.0°C 57.5°F14.2°C 36% 6.9 mph SW11.1 kmh SW 10.7 mph17.2 kmh 30.09 in1019.0 mb 0.00 in0.0 mm 0.00 in0.0 mm 0.00 in0.0 mm
10:49 AM 87.6°F30.9°C 58.1°F14.5°C 37% 3.8 mph SE6.1 kmh SE 6.9 mph11.1 kmh 30.09 in1019.0 mb 0.00 in0.0 mm 0.00 in0.0 mm 0.00 in0.0 mm
10:44 AM 87.4°F30.8°C 58.7°F14.8°C 38% 4.5 mph 7.2 kmh 7.6 mph12.2 kmh 30.08 in1018.6 mb 0.00 in0.0 mm 0.00 in0.0 mm 0.00 in0.0 mm
10:39 AM 87.1°F30.6°C 59.1°F15.1°C 39% 5.4 mph SE8.7 kmh SE 9.8 mph15.8 kmh 30.09 in1019.0 mb 0.00 in0.0 mm 0.00 in0.0 mm 0.00 in0.0 mm
10:34 AM 86.9°F30.5°C 59.6°F15.3°C 40% 12.1 mph ESE19.5 kmh ESE 16.8 mph27.0 kmh 30.09 in1019.0 mb 0.00 in0.0 mm 0.00 in0.0 mm 0.00 in0.0 mm
10:29 AM 86.4°F30.2°C 59.2°F15.1°C 40% 3.8 mph S6.1 kmh S 6.0 mph9.7 kmh 30.09 in1019.0 mb 0.00 in0.0 mm 0.00 in0.0 mm 0.00 in0.0 mm
10:24 AM 86.2°F30.1°C 59.7°F15.4°C 41% 3.8 mph E6.1 kmh E 12.1 mph19.5 kmh 30.09 in1019.0 mb 0.00 in0.0 mm 0.00 in0.0 mm 0.00 in0.0 mm
10:19 AM 85.8°F29.9°C 60.7°F15.9°C 43% 3.8 mph S6.1 kmh S 5.4 mph8.7 kmh 30.09 in1019.0 mb 0.00 in0.0 mm 0.00 in0.0 mm 0.00 in0.0 mm
10:14 AM 85.5°F29.7°C 59.7°F15.4°C 42% 4.5 mph SE7.2 kmh SE 7.6 mph12.2 kmh 30.10 in1019.3 mb 0.00 in0.0 mm 0.00 in0.0 mm 0.00 in0.0 mm
10:09 AM 85.1°F29.5°C 60.1°F15.6°C 43% 6.0 mph ESE9.7 kmh ESE 9.2 mph14.8 kmh 30.10 in1019.3 mb 0.00 in0.0 mm 0.00 in0.0 mm 0.00 in0.0 mm
10:04 AM 84.6°F29.2°C 60.2°F15.7°C 44% 4.5 mph E7.2 kmh E 8.3 mph13.4 kmh 30.10 in1019.3 mb 0.00 in0.0 mm 0.00 in0.0 mm 0.00 in0.0 mm
09:59 AM 84.2°F29.0°C 59.9°F15.5°C 44% 6.0 mph SE9.7 kmh SE 11.4 mph18.3 kmh 30.10 in1019.3 mb 0.00 in0.0 mm 0.00 in0.0 mm 0.00 in0.0 mm
09:54 AM 83.7°F28.7°C 60.7°F15.9°C 46% 6.9 mph E11.1 kmh E 9.2 mph14.8 kmh 30.10 in1019.3 mb 0.00 in0.0 mm 0.00 in0.0 mm 0.00 in0.0 mm
09:49 AM 83.3°F28.5°C 59.7°F15.4°C 45% 5.4 mph SSE8.7 kmh SSE 7.6 mph12.2 kmh 30.10 in1019.3 mb 0.00 in0.0 mm 0.00 in0.0 mm 0.00 in0.0 mm
09:44 AM 82.9°F28.3°C 60.0°F15.6°C 46% 3.1 mph 5.0 kmh 4.5 mph7.2 kmh 30.10 in1019.3 mb 0.00 in0.0 mm 0.00 in0.0 mm 0.00 in0.0 mm
09:39 AM 82.8°F28.2°C 59.8°F15.4°C 46% 3.1 mph E5.0 kmh E 6.0 mph9.7 kmh 30.10 in1019.3 mb 0.00 in0.0 mm 0.00 in0.0 mm 0.00 in0.0 mm
09:34 AM 82.4°F28.0°C 60.1°F15.6°C 47% 4.5 mph ESE7.2 kmh ESE 6.0 mph9.7 kmh 30.10 in1019.3 mb 0.00 in0.0 mm 0.00 in0.0 mm 0.00 in0.0 mm
09:29 AM 82.0°F27.8°C 58.6°F14.8°C 45% 7.6 mph ESE12.2 kmh ESE 11.4 mph18.3 kmh 30.10 in1019.3 mb 0.00 in0.0 mm 0.00 in0.0 mm 0.00 in0.0 mm
09:24 AM 81.7°F27.6°C 58.2°F14.6°C 45% 6.0 mph SE9.7 kmh SE 9.8 mph15.8 kmh 30.10 in1019.3 mb 0.00 in0.0 mm 0.00 in0.0 mm 0.00 in0.0 mm
09:19 AM 81.5°F27.5°C 58.7°F14.8°C 46% 4.5 mph NE7.2 kmh NE 9.2 mph14.8 kmh 30.10 in1019.3 mb 0.00 in0.0 mm 0.00 in0.0 mm 0.00 in0.0 mm
09:14 AM 81.3°F27.4°C 59.1°F15.1°C 47% 3.8 mph E6.1 kmh E 5.4 mph8.7 kmh 30.10 in1019.3 mb 0.00 in0.0 mm 0.00 in0.0 mm 0.00 in0.0 mm
09:09 AM 81.0°F27.2°C 58.2°F14.6°C 46% 3.8 mph W6.1 kmh W 5.4 mph8.7 kmh 30.11 in1019.6 mb 0.00 in0.0 mm 0.00 in0.0 mm 0.00 in0.0 mm
09:04 AM 80.2°F26.8°C 58.7°F14.8°C 48% 1.6 mph S2.6 kmh S 3.1 mph5.0 kmh 30.11 in1019.6 mb 0.00 in0.0 mm 0.00 in0.0 mm 0.00 in0.0 mm
08:59 AM 80.2°F26.8°C 58.7°F14.8°C 48% 1.6 mph NE2.6 kmh NE 3.1 mph5.0 kmh 30.11 in1019.6 mb 0.00 in0.0 mm 0.00 in0.0 mm 0.00 in0.0 mm
08:54 AM 79.9°F26.6°C 59.0°F15.0°C 49% 3.8 mph SE6.1 kmh SE 7.6 mph12.2 kmh 30.10 in1019.3 mb 0.00 in0.0 mm 0.00 in0.0 mm 0.00 in0.0 mm
08:49 AM 79.5°F26.4°C 58.7°F14.8°C 49% 4.5 mph E7.2 kmh E 10.7 mph17.2 kmh 30.11 in1019.6 mb 0.00 in0.0 mm 0.00 in0.0 mm 0.00 in0.0 mm
08:44 AM 79.2°F26.2°C 58.3°F14.6°C 49% 3.8 mph E6.1 kmh E 6.0 mph9.7 kmh 30.11 in1019.6 mb 0.00 in0.0 mm 0.00 in0.0 mm 0.00 in0.0 mm
08:39 AM 78.8°F26.0°C 58.6°F14.8°C 50% 6.0 mph SE9.7 kmh SE 8.3 mph13.4 kmh 30.11 in1019.6 mb 0.00 in0.0 mm 0.00 in0.0 mm 0.00 in0.0 mm
08:34 AM 78.4°F25.8°C 58.8°F14.9°C 51% 6.9 mph SE11.1 kmh SE 8.3 mph13.4 kmh 30.11 in1019.6 mb 0.00 in0.0 mm 0.00 in0.0 mm 0.00 in0.0 mm
08:29 AM 78.3°F25.7°C 58.6°F14.8°C 51% 4.5 mph E7.2 kmh E 7.6 mph12.2 kmh 30.11 in1019.6 mb 0.00 in0.0 mm 0.00 in0.0 mm 0.00 in0.0 mm
08:24 AM 77.9°F25.5°C 58.3°F14.6°C 51% 6.9 mph NE11.1 kmh NE 13.6 mph21.9 kmh 30.11 in1019.6 mb 0.00 in0.0 mm 0.00 in0.0 mm 0.00 in0.0 mm
08:19 AM 77.7°F25.4°C 58.1°F14.5°C 51% 3.8 mph SW6.1 kmh SW 7.6 mph12.2 kmh 30.11 in1019.6 mb 0.00 in0.0 mm 0.00 in0.0 mm 0.00 in0.0 mm
08:14 AM 77.5°F25.3°C 58.0°F14.4°C 51% 4.5 mph SE7.2 kmh SE 8.3 mph13.4 kmh 30.10 in1019.3 mb 0.00 in0.0 mm 0.00 in0.0 mm 0.00 in0.0 mm
08:09 AM 77.4°F25.2°C 57.8°F14.3°C 51% 7.6 mph E12.2 kmh E 11.4 mph18.3 kmh 30.11 in1019.6 mb 0.00 in0.0 mm 0.00 in0.0 mm 0.00 in0.0 mm
08:04 AM 77.2°F25.1°C 57.6°F14.2°C 51% 6.9 mph S11.1 kmh S 9.2 mph14.8 kmh 30.11 in1019.6 mb 0.00 in0.0 mm 0.00 in0.0 mm 0.00 in0.0 mm
07:59 AM 77.0°F25.0°C 58.5°F14.7°C 53% 9.8 mph SSW15.8 kmh SSW 15.2 mph24.5 kmh 30.11 in1019.6 mb 0.00 in0.0 mm 0.00 in0.0 mm 0.00 in0.0 mm
07:54 AM 76.6°F24.8°C 58.7°F14.8°C 54% 5.4 mph E8.7 kmh E 7.6 mph12.2 kmh 30.11 in1019.6 mb 0.00 in0.0 mm 0.00 in0.0 mm 0.00 in0.0 mm
07:49 AM 76.1°F24.5°C 58.7°F14.8°C 55% 3.8 mph SE6.1 kmh SE 5.4 mph8.7 kmh 30.11 in1019.6 mb 0.00 in0.0 mm 0.00 in0.0 mm 0.00 in0.0 mm
07:44 AM 75.4°F24.1°C 58.1°F14.5°C 55% 3.1 mph E5.0 kmh E 5.4 mph8.7 kmh 30.11 in1019.6 mb 0.00 in0.0 mm 0.00 in0.0 mm 0.00 in0.0 mm
07:39 AM 75.2°F24.0°C 57.9°F14.4°C 55% 4.5 mph SE7.2 kmh SE 8.3 mph13.4 kmh 30.11 in1019.6 mb 0.00 in0.0 mm 0.00 in0.0 mm 0.00 in0.0 mm
07:34 AM 74.8°F23.8°C 58.1°F14.5°C 56% 7.6 mph SE12.2 kmh SE 9.8 mph15.8 kmh 30.11 in1019.6 mb 0.00 in0.0 mm 0.00 in0.0 mm 0.00 in0.0 mm
07:29 AM 74.5°F23.6°C 57.7°F14.3°C 56% 5.4 mph SE8.7 kmh SE 7.6 mph12.2 kmh 30.11 in1019.6 mb 0.00 in0.0 mm 0.00 in0.0 mm 0.00 in0.0 mm
07:24 AM 74.1°F23.4°C 57.4°F14.1°C 56% 4.5 mph S7.2 kmh S 6.9 mph11.1 kmh 30.11 in1019.6 mb 0.00 in0.0 mm 0.00 in0.0 mm 0.00 in0.0 mm
07:19 AM 73.8°F23.2°C 57.6°F14.2°C 57% 4.5 mph E7.2 kmh E 7.6 mph12.2 kmh 30.11 in1019.6 mb 0.00 in0.0 mm 0.00 in0.0 mm 0.00 in0.0 mm
07:14 AM 73.6°F23.1°C 57.4°F14.1°C 57% 2.2 mph S3.5 kmh S 4.5 mph7.2 kmh 30.11 in1019.6 mb 0.00 in0.0 mm 0.00 in0.0 mm 0.00 in0.0 mm
07:09 AM 73.4°F23.0°C 57.2°F14.0°C 57% 6.0 mph SE9.7 kmh SE 11.4 mph18.3 kmh 30.11 in1019.6 mb 0.00 in0.0 mm 0.00 in0.0 mm 0.00 in0.0 mm
07:04 AM 73.0°F22.8°C 57.4°F14.1°C 58% 3.1 mph S5.0 kmh S 4.5 mph7.2 kmh 30.11 in1019.6 mb 0.00 in0.0 mm 0.00 in0.0 mm 0.00 in0.0 mm
06:59 AM 73.0°F22.8°C 57.4°F14.1°C 58% 3.1 mph ESE5.0 kmh ESE 6.0 mph9.7 kmh 30.11 in1019.6 mb 0.00 in0.0 mm 0.00 in0.0 mm 0.00 in0.0 mm
06:54 AM 72.7°F22.6°C 57.5°F14.2°C 59% 3.1 mph E5.0 kmh E 9.8 mph15.8 kmh 30.11 in1019.6 mb 0.00 in0.0 mm 0.00 in0.0 mm 0.00 in0.0 mm
06:49 AM 72.5°F22.5°C 57.8°F14.3°C 60% 0.7 mph E1.1 kmh E 3.1 mph5.0 kmh 30.11 in1019.6 mb 0.00 in0.0 mm 0.00 in0.0 mm 0.00 in0.0 mm
06:44 AM 72.1°F22.3°C 57.5°F14.2°C 60% 3.1 mph S5.0 kmh S 5.4 mph8.7 kmh 30.12 in1020.0 mb 0.00 in0.0 mm 0.00 in0.0 mm 0.00 in0.0 mm
06:39 AM 72.1°F22.3°C 57.5°F14.2°C 60% 3.1 mph SE5.0 kmh SE 4.5 mph7.2 kmh 30.12 in1020.0 mb 0.00 in0.0 mm 0.00 in0.0 mm 0.00 in0.0 mm
06:34 AM 71.8°F22.1°C 57.1°F13.9°C 60% 0.7 mph SE1.1 kmh SE 1.6 mph2.6 kmh 30.12 in1020.0 mb 0.00 in0.0 mm 0.00 in0.0 mm 0.00 in0.0 mm
06:29 AM 71.8°F22.1°C 57.1°F13.9°C 60% 0.7 mph E1.1 kmh E 1.6 mph2.6 kmh 30.11 in1019.6 mb 0.00 in0.0 mm 0.00 in0.0 mm 0.00 in0.0 mm
06:24 AM 72.0°F22.2°C 57.3°F14.1°C 60% 2.2 mph SE3.5 kmh SE 3.1 mph5.0 kmh 30.12 in1020.0 mb 0.00 in0.0 mm 0.00 in0.0 mm 0.00 in0.0 mm
06:19 AM 71.8°F22.1°C 56.7°F13.7°C 59% 3.1 mph SE5.0 kmh SE 4.5 mph7.2 kmh 30.11 in1019.6 mb 0.00 in0.0 mm 0.00 in0.0 mm 0.00 in0.0 mm
06:14 AM 72.0°F22.2°C 56.8°F13.8°C 59% 4.5 mph SE7.2 kmh SE 6.0 mph9.7 kmh 30.11 in1019.6 mb 0.00 in0.0 mm 0.00 in0.0 mm 0.00 in0.0 mm
06:09 AM 72.1°F22.3°C 56.5°F13.6°C 58% 2.2 mph ENE3.5 kmh ENE 3.8 mph6.1 kmh 30.11 in1019.6 mb 0.00 in0.0 mm 0.00 in0.0 mm 0.00 in0.0 mm
06:04 AM 72.5°F22.5°C 56.9°F13.8°C 58% 3.1 mph SE5.0 kmh SE 4.5 mph7.2 kmh 30.11 in1019.6 mb 0.00 in0.0 mm 0.00 in0.0 mm 0.00 in0.0 mm
05:59 AM 73.0°F22.8°C 56.9°F13.8°C 57% 2.2 mph SE3.5 kmh SE 4.5 mph7.2 kmh 30.11 in1019.6 mb 0.00 in0.0 mm 0.00 in0.0 mm 0.00 in0.0 mm
05:54 AM 73.8°F23.2°C 57.1°F13.9°C 56% 1.6 mph SE2.6 kmh SE 3.1 mph5.0 kmh 30.11 in1019.6 mb 0.00 in0.0 mm 0.00 in0.0 mm 0.00 in0.0 mm
05:49 AM 74.7°F23.7°C 57.4°F14.1°C 55% 2.2 mph SE3.5 kmh SE 4.5 mph7.2 kmh 30.11 in1019.6 mb 0.00 in0.0 mm 0.00 in0.0 mm 0.00 in0.0 mm
05:44 AM 75.9°F24.4°C 58.1°F14.5°C 54% 3.8 mph SE6.1 kmh SE 4.5 mph7.2 kmh 30.11 in1019.6 mb 0.00 in0.0 mm 0.00 in0.0 mm 0.00 in0.0 mm
05:39 AM 77.4°F25.2°C 57.8°F14.3°C 51% 0.7 mph S1.1 kmh S 1.6 mph2.6 kmh 30.11 in1019.6 mb 0.00 in0.0 mm 0.00 in0.0 mm 0.00 in0.0 mm
05:34 AM 78.4°F25.8°C 59.3°F15.2°C 52% 2.2 mph ESE3.5 kmh ESE 3.8 mph6.1 kmh 30.11 in1019.6 mb 0.00 in0.0 mm 0.00 in0.0 mm 0.00 in0.0 mm
05:29 AM 78.1°F25.6°C 59.5°F15.3°C 53% 1.6 mph SE2.6 kmh SE 3.8 mph6.1 kmh 30.11 in1019.6 mb 0.00 in0.0 mm 0.00 in0.0 mm 0.00 in0.0 mm
05:24 AM 76.3°F24.6°C 59.9°F15.5°C 57% 1.6 mph SE2.6 kmh SE 3.1 mph5.0 kmh 30.11 in1019.6 mb 0.00 in0.0 mm 0.00 in0.0 mm 0.00 in0.0 mm
05:19 AM 73.9°F23.3°C 60.1°F15.6°C 62% 2.2 mph ESE3.5 kmh ESE 4.5 mph7.2 kmh 30.11 in1019.6 mb 0.00 in0.0 mm 0.00 in0.0 mm 0.00 in0.0 mm
05:14 AM 71.6°F22.0°C 58.8°F14.9°C 64% 1.6 mph E2.6 kmh E 3.8 mph6.1 kmh 30.11 in1019.6 mb 0.00 in0.0 mm 0.00 in0.0 mm 0.00 in0.0 mm
05:09 AM 69.1°F20.6°C 58.5°F14.7°C 69% 1.6 mph SE2.6 kmh SE 3.8 mph6.1 kmh 30.12 in1020.0 mb 0.00 in0.0 mm 0.00 in0.0 mm 0.00 in0.0 mm
05:04 AM 66.0°F18.9°C 56.3°F13.5°C 71% 2.2 mph S3.5 kmh S 3.8 mph6.1 kmh 30.12 in1020.0 mb 0.00 in0.0 mm 0.00 in0.0 mm 0.00 in0.0 mm
04:59 AM 65.8°F18.8°C 56.2°F13.4°C 71% 3.1 mph E5.0 kmh E 6.0 mph9.7 kmh 30.12 in1020.0 mb 0.00 in0.0 mm 0.00 in0.0 mm 0.00 in0.0 mm
04:54 AM 65.7°F18.7°C 56.0°F13.3°C 71% 1.6 mph S2.6 kmh S 3.1 mph5.0 kmh 30.11 in1019.6 mb 0.00 in0.0 mm 0.00 in0.0 mm 0.00 in0.0 mm
04:49 AM 65.7°F18.7°C 56.0°F13.3°C 71% 1.6 mph E2.6 kmh E 2.2 mph3.5 kmh 30.12 in1020.0 mb 0.00 in0.0 mm 0.00 in0.0 mm 0.00 in0.0 mm
04:44 AM 65.5°F18.6°C 56.2°F13.4°C 72% 1.6 mph S2.6 kmh S 3.1 mph5.0 kmh 30.12 in1020.0 mb 0.00 in0.0 mm 0.00 in0.0 mm 0.00 in0.0 mm
04:39 AM 65.5°F18.6°C 56.2°F13.4°C 72% 2.2 mph SE3.5 kmh SE 3.1 mph5.0 kmh 30.12 in1020.0 mb 0.00 in0.0 mm 0.00 in0.0 mm 0.00 in0.0 mm
04:34 AM 65.3°F18.5°C 56.0°F13.3°C 72% 2.2 mph E3.5 kmh E 3.1 mph5.0 kmh 30.12 in1020.0 mb 0.00 in0.0 mm 0.00 in0.0 mm 0.00 in0.0 mm
04:29 AM 65.3°F18.5°C 56.0°F13.3°C 72% 1.6 mph SE2.6 kmh SE 3.1 mph5.0 kmh 30.11 in1019.6 mb 0.00 in0.0 mm 0.00 in0.0 mm 0.00 in0.0 mm
04:24 AM 65.3°F18.5°C 56.0°F13.3°C 72% 1.6 mph S2.6 kmh S 3.1 mph5.0 kmh 30.12 in1020.0 mb 0.00 in0.0 mm 0.00 in0.0 mm 0.00 in0.0 mm
04:19 AM 65.3°F18.5°C 56.0°F13.3°C 72% 1.6 mph E2.6 kmh E 3.8 mph6.1 kmh 30.11 in1019.6 mb 0.00 in0.0 mm 0.00 in0.0 mm 0.00 in0.0 mm
04:14 AM 65.3°F18.5°C 56.0°F13.3°C 72% 2.2 mph SE3.5 kmh SE 4.5 mph7.2 kmh 30.11 in1019.6 mb 0.00 in0.0 mm 0.00 in0.0 mm 0.00 in0.0 mm
04:09 AM 65.3°F18.5°C 56.0°F13.3°C 72% 2.2 mph SE3.5 kmh SE 3.8 mph6.1 kmh 30.11 in1019.6 mb 0.00 in0.0 mm 0.00 in0.0 mm 0.00 in0.0 mm
04:04 AM 65.3°F18.5°C 55.6°F13.1°C 71% 0.7 mph E1.1 kmh E 3.1 mph5.0 kmh 30.11 in1019.6 mb 0.00 in0.0 mm 0.00 in0.0 mm 0.00 in0.0 mm
03:59 AM 65.5°F18.6°C 55.8°F13.2°C 71% 2.2 mph SE3.5 kmh SE 3.8 mph6.1 kmh 30.11 in1019.6 mb 0.00 in0.0 mm 0.00 in0.0 mm 0.00 in0.0 mm
03:54 AM 65.5°F18.6°C 55.8°F13.2°C 71% 1.6 mph SE2.6 kmh SE 3.1 mph5.0 kmh 30.11 in1019.6 mb 0.00 in0.0 mm 0.00 in0.0 mm 0.00 in0.0 mm
03:49 AM 65.7°F18.7°C 56.0°F13.3°C 71% 2.2 mph S3.5 kmh S 3.8 mph6.1 kmh 30.11 in1019.6 mb 0.00 in0.0 mm 0.00 in0.0 mm 0.00 in0.0 mm
03:44 AM 65.7°F18.7°C 56.0°F13.3°C 71% 0.7 mph S1.1 kmh S 2.2 mph3.5 kmh 30.11 in1019.6 mb 0.00 in0.0 mm 0.00 in0.0 mm 0.00 in0.0 mm
03:39 AM 65.7°F18.7°C 56.0°F13.3°C 71% 1.6 mph E2.6 kmh E 3.1 mph5.0 kmh 30.11 in1019.6 mb 0.00 in0.0 mm 0.00 in0.0 mm 0.00 in0.0 mm
03:34 AM 65.7°F18.7°C 55.6°F13.1°C 70% 2.2 mph SE3.5 kmh SE 4.5 mph7.2 kmh 30.11 in1019.6 mb 0.00 in0.0 mm 0.00 in0.0 mm 0.00 in0.0 mm
03:29 AM 65.7°F18.7°C 55.6°F13.1°C 70% 0.7 mph ESE1.1 kmh ESE 2.2 mph3.5 kmh 30.11 in1019.6 mb 0.00 in0.0 mm 0.00 in0.0 mm 0.00 in0.0 mm
03:24 AM 66.0°F18.9°C 55.9°F13.3°C 70% 0.7 mph SE1.1 kmh SE 2.2 mph3.5 kmh 30.11 in1019.6 mb 0.00 in0.0 mm 0.00 in0.0 mm 0.00 in0.0 mm
03:19 AM 66.0°F18.9°C 55.9°F13.3°C 70% 0.7 mph SSE1.1 kmh SSE 2.2 mph3.5 kmh 30.11 in1019.6 mb 0.00 in0.0 mm 0.00 in0.0 mm 0.00 in0.0 mm
03:14 AM 66.0°F18.9°C 55.9°F13.3°C 70% 0.7 mph E1.1 kmh E 2.2 mph3.5 kmh 30.11 in1019.6 mb 0.00 in0.0 mm 0.00 in0.0 mm 0.00 in0.0 mm
03:09 AM 66.0°F18.9°C 55.9°F13.3°C 70% 2.2 mph SE3.5 kmh SE 3.1 mph5.0 kmh 30.11 in1019.6 mb 0.00 in0.0 mm 0.00 in0.0 mm 0.00 in0.0 mm
03:04 AM 66.0°F18.9°C 55.9°F13.3°C 70% 0.7 mph S1.1 kmh S 2.2 mph3.5 kmh 30.11 in1019.6 mb 0.00 in0.0 mm 0.00 in0.0 mm 0.00 in0.0 mm
02:59 AM 66.0°F18.9°C 55.9°F13.3°C 70% 0.7 mph SE1.1 kmh SE 1.6 mph2.6 kmh 30.11 in1019.6 mb 0.00 in0.0 mm 0.00 in0.0 mm 0.00 in0.0 mm
02:54 AM 66.2°F19.0°C 55.7°F13.2°C 69% 0.7 mph SW1.1 kmh SW 2.2 mph3.5 kmh 30.11 in1019.6 mb 0.00 in0.0 mm 0.00 in0.0 mm 0.00 in0.0 mm
02:49 AM 66.4°F19.1°C 55.9°F13.3°C 69% 0.7 mph S1.1 kmh S 1.6 mph2.6 kmh 30.11 in1019.6 mb 0.00 in0.0 mm 0.00 in0.0 mm 0.00 in0.0 mm
02:44 AM 66.4°F19.1°C 55.9°F13.3°C 69% 0.7 mph S1.1 kmh S 1.6 mph2.6 kmh 30.12 in1020.0 mb 0.00 in0.0 mm 0.00 in0.0 mm 0.00 in0.0 mm
02:39 AM 66.4°F19.1°C 55.9°F13.3°C 69% 0.7 mph SW1.1 kmh SW 2.2 mph3.5 kmh 30.11 in1019.6 mb 0.00 in0.0 mm 0.00 in0.0 mm 0.00 in0.0 mm
02:34 AM 66.4°F19.1°C 56.3°F13.5°C 70% 1.6 mph SE2.6 kmh SE 3.8 mph6.1 kmh 30.11 in1019.6 mb 0.00 in0.0 mm 0.00 in0.0 mm 0.00 in0.0 mm
02:29 AM 66.4°F19.1°C 56.3°F13.5°C 70% 1.6 mph S2.6 kmh S 3.1 mph5.0 kmh 30.11 in1019.6 mb 0.00 in0.0 mm 0.00 in0.0 mm 0.00 in0.0 mm
02:24 AM 66.0°F18.9°C 56.3°F13.5°C 71% 3.1 mph SE5.0 kmh SE 3.8 mph6.1 kmh 30.11 in1019.6 mb 0.00 in0.0 mm 0.00 in0.0 mm 0.00 in0.0 mm
02:19 AM 66.0°F18.9°C 56.3°F13.5°C 71% 1.6 mph SE2.6 kmh SE 2.2 mph3.5 kmh 30.11 in1019.6 mb 0.00 in0.0 mm 0.00 in0.0 mm 0.00 in0.0 mm
02:14 AM 66.0°F18.9°C 56.3°F13.5°C 71% Calm Calm 1.6 mph2.6 kmh 30.12 in1020.0 mb 0.00 in0.0 mm 0.00 in0.0 mm 0.00 in0.0 mm
02:09 AM 66.0°F18.9°C 56.7°F13.7°C 72% 1.6 mph S2.6 kmh S 2.2 mph3.5 kmh 30.11 in1019.6 mb 0.00 in0.0 mm 0.00 in0.0 mm 0.00 in0.0 mm
02:04 AM 65.7°F18.7°C 56.8°F13.8°C 73% 1.6 mph SE2.6 kmh SE 2.2 mph3.5 kmh 30.11 in1019.6 mb 0.00 in0.0 mm 0.00 in0.0 mm 0.00 in0.0 mm
01:59 AM 65.7°F18.7°C 56.8°F13.8°C 73% 1.6 mph SE2.6 kmh SE 3.1 mph5.0 kmh 30.11 in1019.6 mb 0.00 in0.0 mm 0.00 in0.0 mm 0.00 in0.0 mm
01:54 AM 65.5°F18.6°C 56.6°F13.7°C 73% 1.6 mph SE2.6 kmh SE 2.2 mph3.5 kmh 30.11 in1019.6 mb 0.00 in0.0 mm 0.00 in0.0 mm 0.00 in0.0 mm
01:49 AM 65.3°F18.5°C 56.0°F13.3°C 72% 1.6 mph E2.6 kmh E 2.2 mph3.5 kmh 30.11 in1019.6 mb 0.00 in0.0 mm 0.00 in0.0 mm 0.00 in0.0 mm
01:44 AM 65.5°F18.6°C 56.2°F13.4°C 72% 0.7 mph SW1.1 kmh SW 1.6 mph2.6 kmh 30.11 in1019.6 mb 0.00 in0.0 mm 0.00 in0.0 mm 0.00 in0.0 mm
01:39 AM 65.7°F18.7°C 56.4°F13.6°C 72% 0.7 mph SE1.1 kmh SE 2.2 mph3.5 kmh 30.11 in1019.6 mb 0.00 in0.0 mm 0.00 in0.0 mm 0.00 in0.0 mm
01:34 AM 65.7°F18.7°C 56.4°F13.6°C 72% Calm Calm 0.7 mph1.1 kmh 30.12 in1020.0 mb 0.00 in0.0 mm 0.00 in0.0 mm 0.00 in0.0 mm
01:29 AM 65.8°F18.8°C 56.2°F13.4°C 71% Calm Calm -- 30.11 in1019.6 mb 0.00 in0.0 mm 0.00 in0.0 mm 0.00 in0.0 mm
01:24 AM 65.8°F18.8°C 56.2°F13.4°C 71% Calm Calm -- 30.12 in1020.0 mb 0.00 in0.0 mm 0.00 in0.0 mm 0.00 in0.0 mm
01:19 AM 66.0°F18.9°C 55.9°F13.3°C 70% Calm Calm -- 30.12 in1020.0 mb 0.00 in0.0 mm 0.00 in0.0 mm 0.00 in0.0 mm
01:14 AM 66.4°F19.1°C 55.9°F13.3°C 69% Calm Calm -- 30.12 in1020.0 mb 0.00 in0.0 mm 0.00 in0.0 mm 0.00 in0.0 mm
01:09 AM 66.6°F19.2°C 56.1°F13.4°C 69% Calm Calm -- 30.12 in1020.0 mb 0.00 in0.0 mm 0.00 in0.0 mm 0.00 in0.0 mm
01:04 AM 67.1°F19.5°C 56.2°F13.4°C 68% Calm Calm -- 30.12 in1020.0 mb 0.00 in0.0 mm 0.00 in0.0 mm 0.00 in0.0 mm
12:59 AM 67.1°F19.5°C 56.2°F13.4°C 68% Calm Calm -- 30.12 in1020.0 mb 0.00 in0.0 mm 0.00 in0.0 mm 0.00 in0.0 mm
12:54 AM 67.3°F19.6°C 56.3°F13.5°C 68% Calm Calm -- 30.12 in1020.0 mb 0.00 in0.0 mm 0.00 in0.0 mm 0.00 in0.0 mm
12:49 AM 67.6°F19.8°C 56.3°F13.5°C 67% Calm Calm -- 30.12 in1020.0 mb 0.00 in0.0 mm 0.00 in0.0 mm 0.00 in0.0 mm
12:44 AM 67.8°F19.9°C 56.0°F13.3°C 66% Calm Calm -- 30.12 in1020.0 mb 0.00 in0.0 mm 0.00 in0.0 mm 0.00 in0.0 mm
12:39 AM 68.0°F20.0°C 55.8°F13.2°C 65% Calm Calm -- 30.12 in1020.0 mb 0.00 in0.0 mm 0.00 in0.0 mm 0.00 in0.0 mm
12:34 AM 68.2°F20.1°C 55.5°F13.1°C 64% Calm Calm -- 30.12 in1020.0 mb 0.00 in0.0 mm 0.00 in0.0 mm 0.00 in0.0 mm
12:29 AM 68.5°F20.3°C 55.9°F13.3°C 64% Calm Calm -- 30.12 in1020.0 mb 0.00 in0.0 mm 0.00 in0.0 mm 0.00 in0.0 mm
12:24 AM 68.7°F20.4°C 55.6°F13.1°C 63% Calm Calm -- 30.12 in1020.0 mb 0.00 in0.0 mm 0.00 in0.0 mm 0.00 in0.0 mm
12:19 AM 68.9°F20.5°C 55.8°F13.2°C 63% Calm Calm -- 30.12 in1020.0 mb 0.00 in0.0 mm 0.00 in0.0 mm 0.00 in0.0 mm
12:14 AM 69.3°F20.7°C 56.1°F13.4°C 63% Calm Calm -- 30.12 in1020.0 mb 0.00 in0.0 mm 0.00 in0.0 mm 0.00 in0.0 mm
12:09 AM 69.6°F20.9°C 56.0°F13.3°C 62% Calm Calm -- 30.12 in1020.0 mb 0.00 in0.0 mm 0.00 in0.0 mm 0.00 in0.0 mm
12:04 AM 69.8°F21.0°C 55.7°F13.2°C 61% Calm Calm -- 30.12 in1020.0 mb 0.00 in0.0 mm 0.00 in0.0 mm 0.00 in0.0 mm